Time;durP1;ratioP1;P1;durP2;ratioP2;P2;SDS_P1;SDS_P2;PMS_P1;PMS_P2;Temp;Humidity;BMP_temperature;BMP_pressure;BME280_temperature;BME280_humidity;BME280_pressure;Samples;Min_cycle;Max_cycle;Signal;HPM_P1;HPM_P2
2021/09/18 00:01:02;;;;;;;11.02;7.80;;;15.80;91.70;;;;;;5051436;28;20421;-77
2021/09/18 00:03:30;;;;;;;12.65;8.05;;;15.80;91.80;;;;;;5052641;28;20029;-76
2021/09/18 00:05:55;;;;;;;12.35;8.00;;;15.70;91.80;;;;;;5052254;28;20174;-77
2021/09/18 00:08:21;;;;;;;11.20;7.47;;;15.70;91.80;;;;;;5052990;28;20338;-77
2021/09/18 00:10:46;;;;;;;10.43;7.43;;;15.70;91.80;;;;;;5051240;28;20376;-78
2021/09/18 00:13:12;;;;;;;10.73;7.00;;;15.70;91.80;;;;;;5052608;28;20104;-78
2021/09/18 00:15:38;;;;;;;12.20;7.53;;;15.70;91.90;;;;;;5052235;28;20052;-79
2021/09/18 00:18:03;;;;;;;11.48;7.15;;;15.60;91.90;;;;;;5052525;28;20123;-77
2021/09/18 00:20:30;;;;;;;10.15;7.22;;;15.70;91.90;;;;;;5052779;28;20043;-78
2021/09/18 00:22:56;;;;;;;10.80;7.40;;;15.60;92.20;;;;;;5051323;28;20029;-79
2021/09/18 00:25:22;;;;;;;12.13;8.20;;;15.60;92.00;;;;;;5053013;28;20120;-79
2021/09/18 00:27:47;;;;;;;10.32;7.22;;;15.60;92.10;;;;;;5053525;28;20427;-79
2021/09/18 00:30:13;;;;;;;11.02;7.38;;;15.50;92.20;;;;;;5053013;28;20025;-79
2021/09/18 00:32:39;;;;;;;15.50;7.95;;;15.50;92.30;;;;;;5052698;28;20470;-78
2021/09/18 00:35:05;;;;;;;14.65;7.57;;;15.50;92.30;;;;;;5057080;28;20056;-79
2021/09/18 00:37:31;;;;;;;14.25;7.57;;;15.50;92.30;;;;;;5057919;28;20032;-78
2021/09/18 00:39:57;;;;;;;11.63;7.68;;;15.50;92.30;;;;;;5056370;28;20370;-77
2021/09/18 00:42:22;;;;;;;10.65;7.13;;;15.50;92.30;;;;;;5055850;28;20021;-79
2021/09/18 00:44:51;;;;;;;9.77;7.15;;;15.50;92.30;;;;;;5056585;28;20033;-77
2021/09/18 00:47:17;;;;;;;10.95;7.40;;;15.50;92.30;;;;;;5056556;28;20112;-77
2021/09/18 00:49:42;;;;;;;12.68;7.28;;;15.40;92.20;;;;;;5055367;28;20048;-78
2021/09/18 00:52:08;;;;;;;12.48;7.18;;;15.40;92.30;;;;;;5055838;28;20078;-79
2021/09/18 00:54:34;;;;;;;12.07;7.20;;;15.40;92.30;;;;;;5056840;28;20433;-79
2021/09/18 00:57:00;;;;;;;11.32;7.07;;;15.40;92.40;;;;;;5061847;28;20039;-77
2021/09/18 00:59:26;;;;;;;12.45;6.55;;;15.40;92.50;;;;;;5064315;28;20362;-77
2021/09/18 01:01:52;;;;;;;11.82;6.80;;;15.40;92.50;;;;;;5057192;28;20028;-78
2021/09/18 01:04:17;;;;;;;9.02;5.90;;;15.40;92.60;;;;;;5055109;28;20028;-78
2021/09/18 01:06:43;;;;;;;10.27;5.82;;;15.40;92.60;;;;;;5054835;28;20040;-78
2021/09/18 01:09:09;;;;;;;9.95;5.85;;;15.40;92.50;;;;;;5056222;28;20036;-77
2021/09/18 01:11:35;;;;;;;10.02;5.68;;;15.40;92.50;;;;;;5056035;28;20021;-79
2021/09/18 01:14:00;;;;;;;9.52;5.88;;;15.30;92.40;;;;;;5056013;28;20437;-77
2021/09/18 01:16:26;;;;;;;10.65;6.18;;;15.30;92.40;;;;;;5053867;28;20017;-77
2021/09/18 01:18:52;;;;;;;9.55;5.63;;;15.30;92.30;;;;;;5054684;28;20547;-77
2021/09/18 01:21:19;;;;;;;9.73;5.95;;;15.30;92.40;;;;;;5054841;28;20420;-78
2021/09/18 01:23:45;;;;;;;10.23;5.65;;;15.30;92.50;;;;;;5055100;28;20021;-78
2021/09/18 01:26:11;;;;;;;11.90;6.90;;;15.30;92.70;;;;;;5055742;28;20032;-77
2021/09/18 01:28:41;;;;;;;13.63;7.30;;;15.20;92.70;;;;;;5056391;28;20489;-77
2021/09/18 01:31:07;;;;;;;;;;;15.20;92.80;;;;;;5064094;28;20025;-77
2021/09/18 01:33:33;;;;;;;14.02;8.40;;;15.30;92.90;;;;;;5058002;28;19905;-76
2021/09/18 01:35:58;;;;;;;11.95;7.55;;;15.20;92.90;;;;;;5061833;28;20413;-76
2021/09/18 01:38:24;;;;;;;11.95;7.63;;;15.20;93.00;;;;;;5053650;28;20025;-78
2021/09/18 01:40:49;;;;;;;12.77;7.28;;;15.20;92.90;;;;;;5055804;28;20488;-77
2021/09/18 01:43:16;;;;;;;12.20;7.80;;;15.20;92.90;;;;;;5055136;28;20087;-77
2021/09/18 01:45:42;;;;;;;11.68;7.70;;;15.20;92.90;;;;;;5055489;28;20061;-77
2021/09/18 01:48:10;;;;;;;12.60;7.35;;;15.20;92.80;;;;;;5055452;28;20039;-78
2021/09/18 01:50:44;;;;;;;15.80;8.57;;;15.20;92.70;;;;;;5055219;28;20458;-78
2021/09/18 01:53:13;;;;;;;15.07;8.95;;;15.20;92.80;;;;;;5055488;28;20381;-78
2021/09/18 01:55:39;;;;;;;17.35;9.60;;;15.20;93.00;;;;;;5055028;28;20381;-78
2021/09/18 01:58:06;;;;;;;16.60;10.18;;;15.20;93.10;;;;;;5054109;28;20047;-76
2021/09/18 02:00:32;;;;;;;16.92;9.15;;;15.20;93.30;;;;;;5055798;28;20029;-78
2021/09/18 02:02:58;;;;;;;18.15;11.10;;;15.20;93.30;;;;;;5054074;28;20389;-77
2021/09/18 02:05:25;;;;;;;18.27;10.63;;;15.20;93.30;;;;;;5053755;28;20477;-78
2021/09/18 02:07:52;;;;;;;19.08;10.85;;;15.20;93.30;;;;;;5054440;28;20061;-79
2021/09/18 02:10:21;;;;;;;16.30;10.10;;;15.20;93.20;;;;;;5054336;28;20036;-77
2021/09/18 02:12:48;;;;;;;20.17;12.70;;;15.20;93.10;;;;;;5054998;28;20055;-78
2021/09/18 02:15:15;;;;;;;17.88;11.80;;;15.20;93.00;;;;;;5054249;28;20133;-76
2021/09/18 02:17:41;;;;;;;21.52;12.02;;;15.10;93.00;;;;;;5054095;28;20051;-77
2021/09/18 02:20:10;;;;;;;18.80;11.25;;;15.20;92.90;;;;;;5054691;28;20025;-77
2021/09/18 02:22:35;;;;;;;21.63;12.23;;;15.10;92.90;;;;;;5055415;28;20032;-78
2021/09/18 02:25:02;;;;;;;19.88;11.98;;;15.20;92.90;;;;;;5057794;28;20025;-78
2021/09/18 02:27:27;;;;;;;22.60;13.82;;;15.10;92.80;;;;;;5056585;28;20094;-77
2021/09/18 02:29:53;;;;;;;24.45;13.95;;;15.10;92.80;;;;;;5056083;28;20536;-77
2021/09/18 02:32:19;;;;;;;24.60;15.27;;;15.10;92.90;;;;;;5053481;28;20079;-77
2021/09/18 02:34:45;;;;;;;23.13;14.15;;;15.10;93.00;;;;;;5053784;28;20057;-77
2021/09/18 02:37:11;;;;;;;20.65;13.70;;;15.10;93.00;;;;;;5053878;28;20472;-78
2021/09/18 02:39:36;;;;;;;26.60;15.35;;;15.10;93.10;;;;;;5054739;28;20021;-77
2021/09/18 02:42:02;;;;;;;27.45;15.68;;;15.00;93.10;;;;;;5053046;28;20077;-77
2021/09/18 02:44:28;;;;;;;29.73;17.15;;;15.00;93.30;;;;;;5052946;28;20095;-77
2021/09/18 02:46:53;;;;;;;31.85;17.67;;;15.10;93.40;;;;;;5054765;28;20032;-77
2021/09/18 02:49:19;;;;;;;26.17;17.33;;;15.10;93.40;;;;;;5053859;28;20053;-76
2021/09/18 02:51:45;;;;;;;28.55;17.02;;;15.10;93.50;;;;;;5052341;28;20469;-77
2021/09/18 02:54:10;;;;;;;28.77;17.30;;;15.10;93.40;;;;;;5054589;28;20027;-78
2021/09/18 02:56:36;;;;;;;28.42;17.27;;;15.00;93.30;;;;;;5052383;28;20036;-77
2021/09/18 02:59:02;;;;;;;27.63;17.63;;;15.00;93.20;;;;;;5052124;28;20056;-76
2021/09/18 03:01:27;;;;;;;31.20;18.70;;;15.00;93.20;;;;;;5052023;28;20090;-76
2021/09/18 03:03:53;;;;;;;30.77;19.42;;;15.00;93.10;;;;;;5053350;28;20021;-78
2021/09/18 03:06:18;;;;;;;33.35;20.17;;;15.00;93.10;;;;;;5053354;28;20029;-77
2021/09/18 03:08:44;;;;;;;27.90;18.58;;;15.00;93.10;;;;;;5052009;28;20027;-76
2021/09/18 03:11:10;;;;;;;33.47;20.48;;;15.00;93.10;;;;;;5053740;28;20035;-76
2021/09/18 03:13:36;;;;;;;37.72;21.23;;;15.00;93.10;;;;;;5054164;28;20021;-77
2021/09/18 03:16:07;;;;;;;33.47;21.58;;;15.00;93.20;;;;;;5053370;28;20025;-77
2021/09/18 03:18:33;;;;;;;36.47;22.77;;;15.00;93.20;;;;;;5052844;28;20032;-78
2021/09/18 03:20:59;;;;;;;39.08;23.25;;;14.90;93.20;;;;;;5051627;28;20021;-78
2021/09/18 03:23:25;;;;;;;44.40;24.33;;;15.00;93.20;;;;;;5053091;28;20044;-77
2021/09/18 03:25:50;;;;;;;37.33;23.40;;;15.00;93.30;;;;;;5052361;28;20032;-77
2021/09/18 03:28:16;;;;;;;40.80;23.75;;;15.00;93.40;;;;;;5053626;28;20049;-77
2021/09/18 03:30:41;;;;;;;41.15;23.38;;;15.00;93.50;;;;;;5053218;28;20033;-78
2021/09/18 03:33:07;;;;;;;38.90;24.17;;;15.00;93.50;;;;;;5053386;28;20078;-78
2021/09/18 03:35:33;;;;;;;38.78;23.48;;;15.00;93.50;;;;;;5052440;28;20106;-77
2021/09/18 03:37:58;;;;;;;36.15;23.73;;;15.00;93.40;;;;;;5069596;28;20009;-78
2021/09/18 03:40:24;;;;;;;33.78;22.10;;;15.00;93.40;;;;;;5057947;28;20033;-77
2021/09/18 03:42:50;;;;;;;40.08;24.83;;;15.00;93.40;;;;;;5051886;28;20466;-77
2021/09/18 03:45:15;;;;;;;41.30;24.80;;;14.90;93.40;;;;;;5052305;28;20503;-78
2021/09/18 03:47:41;;;;;;;38.92;23.40;;;15.00;93.40;;;;;;5051775;28;20037;-78
2021/09/18 03:50:08;;;;;;;37.72;23.75;;;14.90;93.30;;;;;;5053500;28;20462;-78
2021/09/18 03:52:34;;;;;;;33.03;21.98;;;14.90;93.20;;;;;;5053219;28;20032;-77
2021/09/18 03:55:00;;;;;;;36.25;23.15;;;14.80;93.20;;;;;;5053564;28;20111;-78
2021/09/18 03:57:26;;;;;;;43.10;25.60;;;14.80;93.10;;;;;;5052856;28;20025;-75
2021/09/18 03:59:51;;;;;;;40.25;24.10;;;14.80;93.00;;;;;;5052624;28;20017;-77
2021/09/18 04:02:17;;;;;;;34.33;23.05;;;14.80;93.00;;;;;;5053044;28;20104;-77
2021/09/18 04:04:42;;;;;;;44.58;26.27;;;14.80;93.10;;;;;;5053124;28;20377;-77
2021/09/18 04:07:08;;;;;;;39.92;25.80;;;14.80;93.20;;;;;;5053812;28;20037;-78
2021/09/18 04:09:34;;;;;;;34.10;22.90;;;14.80;93.20;;;;;;5056203;28;20469;-76
2021/09/18 04:11:59;;;;;;;34.80;23.30;;;14.70;93.10;;;;;;5056851;28;20389;-76
2021/09/18 04:14:25;;;;;;;35.00;22.63;;;14.70;93.10;;;;;;5058332;28;20033;-78
2021/09/18 04:16:51;;;;;;;41.67;23.08;;;14.70;93.10;;;;;;5057183;28;20124;-77
2021/09/18 04:19:16;;;;;;;41.95;23.33;;;14.70;93.10;;;;;;5055962;28;20453;-76
2021/09/18 04:21:42;;;;;;;37.65;23.00;;;14.70;93.10;;;;;;5055569;28;20056;-76
2021/09/18 04:24:08;;;;;;;35.35;22.35;;;14.60;93.10;;;;;;5057495;28;20032;-78
2021/09/18 04:26:33;;;;;;;34.72;23.38;;;14.60;93.00;;;;;;5057528;28;20382;-76
2021/09/18 04:29:00;;;;;;;34.53;21.55;;;14.60;93.10;;;;;;5056447;28;20377;-77
2021/09/18 04:31:28;;;;;;;31.52;21.70;;;14.50;93.00;;;;;;5055729;28;20034;-77
2021/09/18 04:33:54;;;;;;;33.30;22.38;;;14.50;93.00;;;;;;5057776;28;20025;-78
2021/09/18 04:36:22;;;;;;;35.25;22.17;;;14.50;93.10;;;;;;5058768;28;20033;-77
2021/09/18 04:38:51;;;;;;;36.75;22.60;;;14.50;93.10;;;;;;5062056;28;20100;-77
2021/09/18 04:41:18;;;;;;;32.97;23.23;;;14.50;93.10;;;;;;5056739;28;20088;-77
2021/09/18 04:43:44;;;;;;;40.85;24.58;;;14.40;93.10;;;;;;5056582;28;20079;-76
2021/09/18 04:46:09;;;;;;;32.65;21.77;;;14.40;93.10;;;;;;5056031;28;20041;-77
2021/09/18 04:48:35;;;;;;;37.30;21.38;;;14.40;93.20;;;;;;5055705;28;20029;-77
2021/09/18 04:51:01;;;;;;;37.10;22.60;;;14.40;93.20;;;;;;5055721;28;20500;-76
2021/09/18 04:53:26;;;;;;;30.83;20.58;;;14.40;93.10;;;;;;5056677;28;20036;-78
2021/09/18 04:55:53;;;;;;;36.55;22.20;;;14.30;93.00;;;;;;5056578;28;20025;-77
2021/09/18 04:58:18;;;;;;;35.15;21.13;;;14.30;93.00;;;;;;5055992;28;20488;-76
2021/09/18 05:00:44;;;;;;;33.67;21.10;;;14.30;93.10;;;;;;5054607;28;20021;-77
2021/09/18 05:03:10;;;;;;;36.78;22.27;;;14.30;93.10;;;;;;5056011;28;20025;-77
2021/09/18 05:05:36;;;;;;;36.30;21.95;;;14.30;93.10;;;;;;5055156;28;20409;-77
2021/09/18 05:08:02;;;;;;;33.80;21.88;;;14.20;93.10;;;;;;5055676;28;20032;-76
2021/09/18 05:10:27;;;;;;;35.28;21.73;;;14.20;93.00;;;;;;5053844;28;20025;-76
2021/09/18 05:12:53;;;;;;;30.48;20.13;;;14.20;93.00;;;;;;5054862;28;20028;-77
2021/09/18 05:15:18;;;;;;;33.03;19.50;;;14.20;93.00;;;;;;5060648;28;20025;-76
2021/09/18 05:17:44;;;;;;;29.60;20.60;;;14.20;92.90;;;;;;5054752;28;20500;-76
2021/09/18 05:20:10;;;;;;;30.02;20.13;;;14.20;92.90;;;;;;5054378;28;20028;-76
2021/09/18 05:22:36;;;;;;;30.23;19.27;;;14.20;92.90;;;;;;5053120;28;20017;-76
2021/09/18 05:25:04;;;;;;;28.88;19.75;;;14.20;92.80;;;;;;5054201;28;20075;-76
2021/09/18 05:27:30;;;;;;;30.00;19.92;;;14.20;92.80;;;;;;5054743;28;20040;-77
2021/09/18 05:29:56;;;;;;;28.95;19.52;;;14.20;92.80;;;;;;5053313;28;20121;-77
2021/09/18 05:32:21;;;;;;;29.45;19.00;;;14.20;92.90;;;;;;5056139;28;20017;-76
2021/09/18 05:34:47;;;;;;;28.63;18.50;;;14.20;92.80;;;;;;5056274;28;20386;-75
2021/09/18 05:37:12;;;;;;;27.27;17.60;;;14.20;92.90;;;;;;5055646;28;20082;-78
2021/09/18 05:39:38;;;;;;;27.20;18.33;;;14.20;92.90;;;;;;5055764;28;20021;-77
2021/09/18 05:42:04;;;;;;;26.60;17.08;;;14.30;92.80;;;;;;5062434;28;20025;-75
2021/09/18 05:44:29;;;;;;;24.88;16.80;;;14.20;92.80;;;;;;5069579;28;20103;-75
2021/09/18 05:46:55;;;;;;;23.38;16.70;;;14.30;92.80;;;;;;5054680;28;20488;-76
2021/09/18 05:49:20;;;;;;;24.88;16.25;;;14.30;92.90;;;;;;5056117;28;20025;-77
2021/09/18 05:51:46;;;;;;;24.75;17.55;;;14.30;92.80;;;;;;5056609;28;20036;-76
2021/09/18 05:54:12;;;;;;;21.67;15.20;;;14.40;92.90;;;;;;5054519;28;20465;-77
2021/09/18 05:56:37;;;;;;;26.55;15.77;;;14.40;92.90;;;;;;5053897;28;20358;-78
2021/09/18 05:59:03;;;;;;;21.95;15.32;;;14.50;92.80;;;;;;5053731;28;20029;-77
2021/09/18 06:01:30;;;;;;;22.50;16.05;;;14.50;92.80;;;;;;5053143;28;20033;-77
2021/09/18 06:03:55;;;;;;;20.45;14.75;;;14.50;92.70;;;;;;5056261;28;20493;-77
2021/09/18 06:06:21;;;;;;;23.92;15.93;;;14.60;92.80;;;;;;5057060;28;20501;-77
2021/09/18 06:08:47;;;;;;;21.98;15.10;;;14.60;92.80;;;;;;5057495;28;20489;-76
2021/09/18 06:11:12;;;;;;;21.30;14.75;;;14.60;92.80;;;;;;5052856;28;20108;-75
2021/09/18 06:13:38;;;;;;;21.63;15.73;;;14.70;92.90;;;;;;5053916;28;20025;-77
2021/09/18 06:16:04;;;;;;;22.10;15.55;;;14.80;92.60;;;;;;5054097;28;20040;-77
2021/09/18 06:18:30;;;;;;;19.58;14.27;;;14.90;92.60;;;;;;5052771;28;20029;-75
2021/09/18 06:20:57;;;;;;;20.38;15.63;;;14.90;92.50;;;;;;5052451;28;20366;-75
2021/09/18 06:23:23;;;;;;;27.40;15.55;;;15.00;92.40;;;;;;5052503;28;20025;-77
2021/09/18 06:25:48;;;;;;;20.98;15.82;;;15.00;92.30;;;;;;5053477;28;20033;-76
2021/09/18 06:28:14;;;;;;;20.95;14.48;;;15.00;92.30;;;;;;5053964;28;20315;-78
2021/09/18 06:30:42;;;;;;;21.73;17.67;;;15.10;92.30;;;;;;5052441;28;20029;-75
2021/09/18 06:33:08;;;;;;;22.45;15.85;;;15.10;92.40;;;;;;5052540;28;20151;-77
2021/09/18 06:35:33;;;;;;;21.27;16.02;;;15.20;92.40;;;;;;5053256;28;20067;-77
2021/09/18 06:37:59;;;;;;;20.02;14.55;;;15.30;92.20;;;;;;5052533;28;20028;-77
2021/09/18 06:40:25;;;;;;;15.10;11.18;;;15.30;92.00;;;;;;5053742;28;20056;-76
2021/09/18 06:42:51;;;;;;;10.45;8.15;;;15.30;91.90;;;;;;5049401;28;20923;-77
2021/09/18 06:45:17;;;;;;;16.77;11.30;;;15.40;91.80;;;;;;5041502;28;20416;-76
2021/09/18 06:47:42;;;;;;;22.40;15.70;;;15.60;91.60;;;;;;5041423;28;20065;-77
2021/09/18 06:50:09;;;;;;;18.75;14.18;;;15.70;91.20;;;;;;5040051;28;20442;-75
2021/09/18 06:52:35;;;;;;;22.60;17.02;;;15.80;91.00;;;;;;5042959;28;20025;-77
2021/09/18 06:55:01;;;;;;;19.88;14.98;;;15.80;90.90;;;;;;5039547;28;20100;-76
2021/09/18 06:57:26;;;;;;;16.67;13.07;;;15.90;91.00;;;;;;5036849;28;20417;-78
2021/09/18 06:59:52;;;;;;;12.43;9.35;;;16.00;90.70;;;;;;5042895;28;20069;-77
2021/09/18 07:02:17;;;;;;;18.70;13.88;;;16.10;90.60;;;;;;5040717;28;20024;-77
2021/09/18 07:04:43;;;;;;;19.27;15.43;;;16.10;90.40;;;;;;5042734;28;20025;-75
2021/09/18 07:07:08;;;;;;;18.63;14.15;;;16.30;90.40;;;;;;5039694;28;20510;-76
2021/09/18 07:09:34;;;;;;;15.90;12.90;;;16.50;90.30;;;;;;5031359;28;20029;-75
2021/09/18 07:12:00;;;;;;;17.23;14.13;;;16.70;89.90;;;;;;5031834;28;20120;-76
2021/09/18 07:14:26;;;;;;;18.52;14.70;;;16.70;89.30;;;;;;5031843;28;20028;-76
2021/09/18 07:16:51;;;;;;;17.15;13.77;;;16.80;89.50;;;;;;5033780;28;20445;-75
2021/09/18 07:19:17;;;;;;;17.58;14.48;;;17.00;88.60;;;;;;5032718;28;20021;-76
2021/09/18 07:21:42;;;;;;;18.38;13.80;;;17.10;87.60;;;;;;5032809;28;20028;-76
2021/09/18 07:24:09;;;;;;;17.75;14.65;;;17.20;87.50;;;;;;5031637;28;20446;-76
2021/09/18 07:26:36;;;;;;;17.63;15.00;;;17.20;87.00;;;;;;5031142;28;20100;-74
2021/09/18 07:29:04;;;;;;;14.90;13.07;;;17.10;86.50;;;;;;5031300;28;20040;-76
2021/09/18 07:31:30;;;;;;;16.25;14.30;;;17.10;87.60;;;;;;5032552;28;20393;-78
2021/09/18 07:33:56;;;;;;;16.92;14.38;;;17.20;87.40;;;;;;5032728;28;20053;-77
2021/09/18 07:36:21;;;;;;;14.48;12.40;;;17.30;86.60;;;;;;5031368;28;20536;-77
2021/09/18 07:38:48;;;;;;;14.25;12.40;;;17.20;86.70;;;;;;5031557;28;20045;-75
2021/09/18 07:41:15;;;;;;;14.68;12.35;;;17.10;87.20;;;;;;5039378;28;20025;-77
2021/09/18 07:43:41;;;;;;;12.93;10.20;;;17.10;87.80;;;;;;5033351;28;20087;-76
2021/09/18 07:46:06;;;;;;;12.95;11.50;;;17.00;87.90;;;;;;5036569;28;20037;-75
2021/09/18 07:48:32;;;;;;;16.10;13.13;;;16.90;88.40;;;;;;5038606;28;20104;-76
2021/09/18 07:50:58;;;;;;;15.77;13.35;;;16.90;88.90;;;;;;5037434;28;20033;-76
2021/09/18 07:53:24;;;;;;;19.23;12.55;;;16.90;89.00;;;;;;5039189;28;20064;-77
2021/09/18 07:55:50;;;;;;;16.80;13.95;;;16.90;89.30;;;;;;5053791;28;20028;-75
2021/09/18 07:58:16;;;;;;;25.27;14.45;;;16.90;89.60;;;;;;5061230;28;20029;-76
2021/09/18 08:00:44;;;;;;;21.27;16.38;;;16.90;89.50;;;;;;5056554;28;20032;-77
2021/09/18 08:03:09;;;;;;;22.27;17.02;;;16.80;90.20;;;;;;5055163;28;20036;-76
2021/09/18 08:05:35;;;;;;;21.08;16.77;;;16.90;90.40;;;;;;5055698;28;20029;-76
2021/09/18 08:08:01;;;;;;;22.35;18.05;;;16.90;90.40;;;;;;5056487;28;20096;-76
2021/09/18 08:10:27;;;;;;;20.70;17.10;;;17.10;90.00;;;;;;5055267;28;20028;-77
2021/09/18 08:12:53;;;;;;;21.65;17.10;;;17.10;90.00;;;;;;5057066;28;20528;-76
2021/09/18 08:15:19;;;;;;;22.35;16.27;;;17.00;90.20;;;;;;5055810;28;20025;-76
2021/09/18 08:17:46;;;;;;;20.63;17.05;;;17.00;90.20;;;;;;5060321;28;20036;-77
2021/09/18 08:20:14;;;;;;;19.50;16.27;;;17.10;90.40;;;;;;5056306;28;20025;-77
2021/09/18 08:22:40;;;;;;;19.17;16.85;;;17.20;90.50;;;;;;5054139;28;20087;-77
2021/09/18 08:25:07;;;;;;;20.20;16.33;;;17.30;89.80;;;;;;5054311;28;20029;-76
2021/09/18 08:27:33;;;;;;;19.10;15.90;;;17.40;90.20;;;;;;5055385;28;20036;-76
2021/09/18 08:29:59;;;;;;;14.13;12.32;;;17.70;88.80;;;;;;5056399;28;20107;-76
2021/09/18 08:32:24;;;;;;;13.52;11.55;;;17.90;88.40;;;;;;5055284;28;20029;-76
2021/09/18 08:34:50;;;;;;;14.13;11.77;;;18.20;88.10;;;;;;5055636;28;20040;-77
2021/09/18 08:37:16;;;;;;;14.25;12.10;;;18.60;87.40;;;;;;5055858;28;20029;-76
2021/09/18 08:39:41;;;;;;;14.38;12.88;;;18.90;85.10;;;;;;5054258;28;20033;-77
2021/09/18 08:42:09;;;;;;;15.30;11.93;;;19.10;82.90;;;;;;5055296;28;20024;-76
2021/09/18 08:44:36;;;;;;;12.80;10.65;;;19.40;81.90;;;;;;5055337;28;20087;-77
2021/09/18 08:47:02;;;;;;;13.25;10.95;;;19.50;81.80;;;;;;5054247;28;20114;-76
2021/09/18 08:49:29;;;;;;;11.70;9.05;;;19.60;80.70;;;;;;5054054;28;20354;-76
2021/09/18 08:51:55;;;;;;;9.23;7.80;;;19.80;81.40;;;;;;5055433;28;20037;-76
2021/09/18 08:54:21;;;;;;;13.15;10.65;;;20.10;81.20;;;;;;5061940;28;20115;-78
2021/09/18 08:56:47;;;;;;;9.55;7.63;;;20.50;79.70;;;;;;5054534;28;20078;-76
2021/09/18 08:59:13;;;;;;;6.57;3.58;;;20.70;78.30;;;;;;5054822;28;20079;-76
2021/09/18 09:01:38;;;;;;;9.32;7.25;;;20.90;79.00;;;;;;5054534;28;20461;-76
2021/09/18 09:04:07;;;;;;;4.80;2.10;;;21.20;78.60;;;;;;5055804;28;20025;-77
2021/09/18 09:06:47;;;;;;;4.15;1.98;;;21.40;78.80;;;;;;5054032;28;20493;-77
2021/09/18 09:09:14;;;;;;;8.77;3.28;;;21.50;78.90;;;;;;5054759;28;20462;-78
2021/09/18 09:11:51;;;;;;;7.28;4.97;;;21.70;78.80;;;;;;5054546;28;20389;-76
2021/09/18 09:14:17;;;;;;;10.48;7.30;;;22.00;78.10;;;;;;5054115;28;20643;-77
2021/09/18 09:17:06;;;;;;;7.13;4.57;;;22.10;76.80;;;;;;5054615;28;20025;-77
2021/09/18 09:19:41;;;;;;;15.10;13.13;;;22.20;77.90;;;;;;5053643;28;20018;-78
2021/09/18 09:22:07;;;;;;;8.40;2.90;;;22.30;75.50;;;;;;5055929;28;20017;-76
2021/09/18 09:24:33;;;;;;;11.55;8.40;;;22.40;77.90;;;;;;5055015;28;20029;-79
2021/09/18 09:27:14;;;;;;;6.25;3.60;;;22.50;75.10;;;;;;5055031;28;20037;-77
2021/09/18 09:29:49;;;;;;;5.13;2.63;;;22.50;77.70;;;;;;5055492;28;20029;-76
2021/09/18 09:32:38;;;;;;;5.72;3.60;;;22.50;78.70;;;;;;5054064;28;20066;-77
2021/09/18 09:35:10;;;;;;;9.30;6.82;;;22.60;78.50;;;;;;5055240;28;20017;-77
2021/09/18 09:37:36;;;;;;;7.85;2.63;;;22.70;76.50;;;;;;5055333;28;20040;-77
2021/09/18 09:40:05;;;;;;;10.60;7.13;;;22.90;78.60;;;;;;5053586;28;20342;-76
2021/09/18 09:42:42;;;;;;;7.93;4.63;;;23.10;77.60;;;;;;5053446;28;20468;-78
2021/09/18 09:45:22;;;;;;;16.95;12.07;;;23.30;76.90;;;;;;5058910;28;20484;-76
2021/09/18 09:48:10;;;;;;;10.32;6.45;;;23.30;76.50;;;;;;5057086;28;20044;-77
2021/09/18 09:50:38;;;;;;;14.32;10.90;;;23.40;78.10;;;;;;5057109;28;20021;-79
2021/09/18 09:53:05;;;;;;;8.80;6.75;;;23.60;76.60;;;;;;5057009;28;20021;-78
2021/09/18 09:55:37;;;;;;;13.73;9.93;;;23.80;77.40;;;;;;5070391;28;20037;-77
2021/09/18 09:58:06;;;;;;;15.18;10.00;;;24.00;74.80;;;;;;5055245;28;20029;-78
2021/09/18 10:00:52;;;;;;;22.50;18.43;;;23.80;76.70;;;;;;5052713;28;20466;-76
2021/09/18 10:03:26;;;;;;;19.65;13.55;;;23.50;74.60;;;;;;5055047;28;20033;-77
2021/09/18 10:05:54;;;;;;;14.48;10.32;;;23.30;77.60;;;;;;5058679;28;20048;-77
2021/09/18 10:08:24;;;;;;;10.38;7.93;;;23.30;78.70;;;;;;5059258;28;20021;-77
2021/09/18 10:10:51;;;;;;;24.85;18.10;;;23.40;80.50;;;;;;5054287;28;20021;-78
2021/09/18 10:13:26;;;;;;;19.33;13.27;;;23.50;77.30;;;;;;5053787;28;20037;-76
2021/09/18 10:15:53;;;;;;;18.42;13.98;;;23.70;79.70;;;;;;5052734;28;20388;-77
2021/09/18 10:18:19;;;;;;;16.95;12.88;;;23.80;79.80;;;;;;5053128;28;20035;-78
2021/09/18 10:23:19;;;;;;;11.30;7.75;;;24.00;78.10;;;;;;5054258;28;20122;-77
2021/09/18 10:25:50;;;;;;;18.67;16.08;;;24.20;79.60;;;;;;5052435;28;20021;-78
2021/09/18 10:28:20;;;;;;;14.70;10.27;;;24.40;79.40;;;;;;5053727;28;20025;-78
2021/09/18 10:30:56;;;;;;;16.67;14.18;;;24.50;77.40;;;;;;5053769;28;20523;-77
2021/09/18 10:33:41;;;;;;;11.65;9.15;;;24.60;78.50;;;;;;5053844;28;20096;-77
2021/09/18 10:36:29;;;;;;;13.85;11.00;;;24.70;76.30;;;;;;5052534;28;20547;-77
2021/09/18 10:39:07;;;;;;;19.48;16.55;;;24.50;75.70;;;;;;5053880;28;20079;-77
2021/09/18 10:41:44;;;;;;;21.83;18.50;;;24.60;76.10;;;;;;5053867;28;20087;-76
2021/09/18 10:44:11;;;;;;;22.42;20.02;;;24.70;76.10;;;;;;5064899;28;20033;-78
2021/09/18 10:46:47;;;;;;;18.20;13.75;;;24.70;73.30;;;;;;5052172;28;20043;-78
2021/09/18 10:49:37;;;;;;;31.05;25.08;;;24.80;72.90;;;;;;5052371;28;20051;-78
2021/09/18 10:52:23;;;;;;;22.17;17.23;;;24.80;70.60;;;;;;5052863;28;20029;-77
2021/09/18 10:55:10;;;;;;;27.85;24.85;;;24.60;73.10;;;;;;5053292;28;20023;-77
2021/09/18 10:57:39;;;;;;;36.80;32.17;;;24.50;71.80;;;;;;5053143;28;20029;-77
2021/09/18 11:00:14;;;;;;;13.87;11.37;;;24.40;71.00;;;;;;5053889;28;20191;-78
2021/09/18 11:02:41;;;;;;;13.40;10.05;;;24.60;76.80;;;;;;5053301;28;20324;-79
2021/09/18 11:05:20;;;;;;;10.30;7.70;;;24.80;76.20;;;;;;5052587;28;20200;-78
2021/09/18 11:07:46;;;;;;;26.00;22.05;;;24.90;77.70;;;;;;5055151;28;20037;-78
2021/09/18 11:10:13;;;;;;;20.92;17.80;;;25.10;73.90;;;;;;5054758;28;20036;-79
2021/09/18 11:12:39;;;;;;;24.20;19.35;;;25.10;73.00;;;;;;5055316;28;20049;-79
2021/09/18 11:15:13;;;;;;;12.70;9.25;;;25.20;72.70;;;;;;5053784;28;20031;-78
2021/09/18 11:17:43;;;;;;;18.20;13.63;;;25.20;75.50;;;;;;5053093;28;20488;-78
2021/09/18 11:20:14;;;;;;;21.30;17.10;;;25.30;77.20;;;;;;5058362;28;20413;-79
2021/09/18 11:22:40;;;;;;;7.78;6.22;;;25.30;73.00;;;;;;5053168;28;20047;-79
2021/09/18 11:25:25;;;;;;;8.90;6.93;;;25.40;78.70;;;;;;5053968;28;20446;-78
2021/09/18 11:28:31;;;;;;;20.58;15.07;;;25.70;77.10;;;;;;5053694;28;20060;-78
2021/09/18 11:30:57;;;;;;;20.95;18.10;;;25.80;76.00;;;;;;5042050;28;20408;-77
2021/09/18 11:33:24;;;;;;;20.85;16.70;;;26.00;75.10;;;;;;5054418;28;20055;-78
2021/09/18 11:35:58;;;;;;;13.30;10.10;;;25.90;74.90;;;;;;5068735;28;20024;-77
2021/09/18 11:38:29;;;;;;;12.07;10.02;;;25.90;74.00;;;;;;5069949;28;20028;-78
2021/09/18 11:41:10;;;;;;;21.38;17.73;;;25.90;78.60;;;;;;5061077;28;20071;-79
2021/09/18 11:43:37;;;;;;;13.15;11.15;;;25.90;71.30;;;;;;5053601;28;20017;-79
2021/09/18 11:46:04;;;;;;;17.50;14.05;;;25.90;74.50;;;;;;5052483;28;20536;-79
2021/09/18 11:48:31;;;;;;;25.90;21.63;;;25.90;78.60;;;;;;5053881;28;20017;-78
2021/09/18 11:50:58;;;;;;;27.60;23.50;;;26.00;69.70;;;;;;5052927;28;20465;-78
2021/09/18 11:53:23;;;;;;;22.92;18.65;;;26.00;66.50;;;;;;5053548;28;20535;-79
2021/09/18 11:55:54;;;;;;;23.67;19.95;;;25.90;72.40;;;;;;5060519;28;20020;-79
2021/09/18 11:58:20;;;;;;;23.23;19.27;;;25.80;73.00;;;;;;5060654;28;20052;-78
2021/09/18 12:00:48;;;;;;;21.77;16.42;;;25.70;69.50;;;;;;5069355;28;20088;-78
2021/09/18 12:03:18;;;;;;;26.33;19.80;;;25.30;70.70;;;;;;5052817;28;20030;-78
2021/09/18 12:05:49;;;;;;;16.08;12.35;;;25.10;70.20;;;;;;5054230;28;20032;-79
2021/09/18 12:08:18;;;;;;;15.15;11.65;;;24.80;73.20;;;;;;5052532;28;20059;-79
2021/09/18 12:10:44;;;;;;;19.58;15.90;;;24.90;76.70;;;;;;5051637;28;20029;-79
2021/09/18 12:13:10;;;;;;;8.18;6.72;;;25.00;74.00;;;;;;5052591;28;20531;-79
2021/09/18 12:15:40;;;;;;;14.88;11.70;;;25.00;80.40;;;;;;5051554;28;20013;-79
2021/09/18 12:18:25;;;;;;;18.50;12.95;;;25.10;74.60;;;;;;5052001;28;20027;-79
2021/09/18 12:20:54;;;;;;;11.85;10.40;;;25.30;80.00;;;;;;5051691;28;20029;-79
2021/09/18 12:23:20;;;;;;;10.25;8.55;;;25.60;80.10;;;;;;5053772;28;20450;-79
2021/09/18 12:25:58;;;;;;;22.38;16.15;;;25.70;75.70;;;;;;5052698;28;20116;-79
2021/09/18 12:28:25;;;;;;;15.77;11.73;;;25.70;71.50;;;;;;5052516;28;20048;-78
2021/09/18 12:30:51;;;;;;;19.88;16.70;;;25.60;71.10;;;;;;5054729;28;20029;-79
2021/09/18 12:33:27;;;;;;;19.60;15.10;;;25.30;69.50;;;;;;5064373;28;20025;-82
2021/09/18 12:35:52;;;;;;;16.50;11.00;;;25.30;73.00;;;;;;5055310;28;20047;-80